createdAt,value
2022-08-05T00:04:55.358Z,19.44
2022-08-05T00:10:00.192Z,19.35
2022-08-05T00:15:54.133Z,19.29
2022-08-05T00:20:30.248Z,19.22
2022-08-05T00:25:46.048Z,19.18
2022-08-05T00:30:52.148Z,19.11
2022-08-05T00:36:15.119Z,19.02
2022-08-05T00:41:52.232Z,18.92
2022-08-05T00:47:03.988Z,18.79
2022-08-05T00:52:09.883Z,18.70
2022-08-05T00:57:16.258Z,18.61
2022-08-05T01:02:28.281Z,18.53
2022-08-05T01:07:32.417Z,18.45
2022-08-05T01:12:38.589Z,18.39
2022-08-05T01:18:05.814Z,18.32
2022-08-05T01:23:34.835Z,18.24
2022-08-05T01:28:52.500Z,18.14
2022-08-05T01:34:13.819Z,18.08
2022-08-05T01:39:47.229Z,18.14
2022-08-05T01:44:54.369Z,18.13
2022-08-05T01:50:02.758Z,18.10
2022-08-05T01:55:13.866Z,18.08
2022-08-05T02:00:19.257Z,18.05
2022-08-05T02:05:31.145Z,18.02
2022-08-05T02:10:49.194Z,17.97
2022-08-05T02:16:22.084Z,17.92
2022-08-05T02:21:43.423Z,17.85
2022-08-05T02:26:58.958Z,17.79
2022-08-05T02:32:06.909Z,17.73
2022-08-05T02:37:14.778Z,17.69
2022-08-05T02:42:25.821Z,17.64
2022-08-05T02:48:06.427Z,17.58
2022-08-05T02:53:01.171Z,17.53
2022-08-05T02:58:20.224Z,17.50
2022-08-05T03:03:33.686Z,17.47
2022-08-05T03:08:43.760Z,17.44
2022-08-05T03:13:51.030Z,17.42
2022-08-05T03:19:12.681Z,17.42
2022-08-05T03:24:30.244Z,17.43
2022-08-05T03:29:45.136Z,17.43
2022-08-05T03:35:01.066Z,17.46
2022-08-05T03:40:11.881Z,17.53
2022-08-05T03:45:22.814Z,17.62
2022-08-05T03:50:49.436Z,17.74
2022-08-05T03:56:18.072Z,17.86
2022-08-05T04:01:35.721Z,18.00
2022-08-05T04:06:47.396Z,18.14
2022-08-05T04:11:52.894Z,18.29
2022-08-05T04:16:57.950Z,18.41
2022-08-05T04:22:08.823Z,18.58
2022-08-05T04:27:15.869Z,18.75
2022-08-05T04:32:31.292Z,18.96
2022-08-05T04:38:02.580Z,19.16
2022-08-05T04:43:05.451Z,19.35
2022-08-05T04:48:26.919Z,19.55
2022-08-05T04:53:35.341Z,19.75
2022-08-05T04:58:40.069Z,19.97
2022-08-05T05:03:45.329Z,20.17
2022-08-05T05:08:49.935Z,20.35
2022-08-05T05:13:55.262Z,20.50
2022-08-05T05:19:19.023Z,20.68
2022-08-05T05:24:56.209Z,20.92
2022-08-05T05:30:05.063Z,21.20
2022-08-05T05:35:10.249Z,21.49
2022-08-05T05:40:26.837Z,21.77
2022-08-05T05:45:32.291Z,22.10
2022-08-05T05:50:43.814Z,22.42
2022-08-05T05:55:52.451Z,22.74
2022-08-05T06:01:12.816Z,23.05
2022-08-05T06:06:19.556Z,23.28
2022-08-05T06:11:29.050Z,23.46
2022-08-05T06:16:37.177Z,23.75
2022-08-05T06:21:42.949Z,24.06
2022-08-05T06:26:54.202Z,24.36
2022-08-05T06:32:00.097Z,24.65
2022-08-05T06:37:04.534Z,24.91
2022-08-05T06:42:10.492Z,25.16
2022-08-05T06:48:11.545Z,25.46
2022-08-05T06:52:40.606Z,25.75
2022-08-05T06:57:57.900Z,26.07
2022-08-05T07:03:09.738Z,26.32
2022-08-05T07:08:14.577Z,26.62
2022-08-05T07:13:54.288Z,26.79
2022-08-05T07:19:02.755Z,26.93
2022-08-05T07:24:11.126Z,26.96
2022-08-05T07:29:16.248Z,27.27
2022-08-05T07:34:21.598Z,27.49
2022-08-05T07:40:04.306Z,27.82
2022-08-05T07:44:57.100Z,28.03
2022-08-05T07:50:06.616Z,28.13
2022-08-05T07:55:44.002Z,28.32
2022-08-05T08:00:36.839Z,28.41
2022-08-05T08:05:49.832Z,28.62
2022-08-05T08:10:56.371Z,28.66
2022-08-05T08:16:35.317Z,28.73
2022-08-05T08:21:25.101Z,29.14
2022-08-05T08:26:30.157Z,29.35
2022-08-05T08:31:34.612Z,29.41
2022-08-05T08:36:50.584Z,29.36
2022-08-05T08:42:02.529Z,29.40
2022-08-05T08:47:47.747Z,29.44
2022-08-05T08:52:37.955Z,29.45
2022-08-05T08:57:58.079Z,29.51
2022-08-05T09:03:07.284Z,29.54
2022-08-05T09:08:11.436Z,29.51
2022-08-05T09:13:16.767Z,29.69
2022-08-05T09:18:21.211Z,29.77
2022-08-05T09:23:27.232Z,30.07
2022-08-05T09:28:42.074Z,30.18
2022-08-05T09:34:00.194Z,30.49
2022-08-05T09:39:18.514Z,30.66
2022-08-05T09:44:49.319Z,30.67
2022-08-05T09:50:01.113Z,30.77
2022-08-05T09:55:58.579Z,31.04
2022-08-05T10:00:37.168Z,31.15
2022-08-05T10:05:42.423Z,31.17
2022-08-05T10:10:48.164Z,31.34
2022-08-05T10:15:54.578Z,31.34
2022-08-05T10:21:06.350Z,31.44
2022-08-05T10:26:16.014Z,31.53
2022-08-05T10:32:53.997Z,31.55
2022-08-05T10:36:46.524Z,31.67
2022-08-05T10:42:08.569Z,31.84
2022-08-05T10:47:26.585Z,31.88
2022-08-05T10:53:01.060Z,31.80
2022-08-05T10:58:15.647Z,31.72
2022-08-05T11:03:27.089Z,31.98
2022-08-05T11:08:37.386Z,31.93
2022-08-05T11:13:57.634Z,31.85
2022-08-05T11:20:11.183Z,31.73
2022-08-05T11:26:06.036Z,31.99
2022-08-05T11:30:58.729Z,32.06
2022-08-05T11:36:11.514Z,31.94
2022-08-05T11:41:58.120Z,32.00
2022-08-05T11:47:09.403Z,32.07
2022-08-05T11:52:29.477Z,32.05
2022-08-05T11:58:08.679Z,32.08
2022-08-05T12:02:59.433Z,32.15
2022-08-05T12:08:09.693Z,32.14
2022-08-05T12:13:27.876Z,32.19
2022-08-05T12:18:42.648Z,32.26
2022-08-05T12:24:04.445Z,32.35
2022-08-05T12:29:26.995Z,32.45
2022-08-05T12:34:37.601Z,32.74
2022-08-05T12:39:42.228Z,33.02
2022-08-05T12:44:47.966Z,33.04
2022-08-05T12:50:03.253Z,32.97
2022-08-05T12:55:25.413Z,32.97
2022-08-05T13:02:02.842Z,32.80
2022-08-05T13:05:59.824Z,32.72
2022-08-05T13:11:05.171Z,32.91
2022-08-05T13:16:17.543Z,32.92
2022-08-05T13:21:22.453Z,33.01
2022-08-05T13:26:32.525Z,33.00
2022-08-05T13:32:03.979Z,32.84
2022-08-05T13:37:01.141Z,32.89
2022-08-05T13:42:05.944Z,32.99
2022-08-05T13:47:10.448Z,33.24
2022-08-05T13:52:35.875Z,33.22
2022-08-05T13:57:50.810Z,33.24
2022-08-05T14:02:58.428Z,32.96
2022-08-05T14:08:11.129Z,32.74
2022-08-05T14:13:26.377Z,32.52
2022-08-05T14:18:30.647Z,32.26
2022-08-05T14:23:37.176Z,32.15
2022-08-05T14:28:52.193Z,32.26
2022-08-05T14:33:59.784Z,32.58
2022-08-05T14:39:06.725Z,32.55
2022-08-05T14:44:21.965Z,32.58
2022-08-05T14:49:59.233Z,32.66
2022-08-05T14:54:53.512Z,32.75
2022-08-05T14:59:57.859Z,32.74
2022-08-05T15:05:08.584Z,32.80
2022-08-05T15:10:18.202Z,33.28
2022-08-05T15:15:54.536Z,34.05
2022-08-05T15:20:58.012Z,35.38
2022-08-05T15:26:12.571Z,35.65
2022-08-05T15:31:17.112Z,36.08
2022-08-05T15:36:25.670Z,36.96
2022-08-05T15:41:55.409Z,37.57
2022-08-05T15:47:00.713Z,37.83
2022-08-05T15:52:16.843Z,37.62
2022-08-05T15:57:34.796Z,37.55
2022-08-05T16:02:39.837Z,37.06
2022-08-05T16:07:46.437Z,36.69
2022-08-05T16:12:52.078Z,36.51
2022-08-05T16:17:57.661Z,36.16
2022-08-05T16:23:04.297Z,35.71
2022-08-05T16:28:14.165Z,35.41
2022-08-05T16:33:19.654Z,34.68
2022-08-05T16:38:28.040Z,34.30
2022-08-05T16:43:36.199Z,34.66
2022-08-05T16:48:41.441Z,34.81
2022-08-05T16:54:04.997Z,34.61
2022-08-05T16:59:15.693Z,34.08
2022-08-05T17:04:26.314Z,33.81
2022-08-05T17:09:57.688Z,33.00
2022-08-05T17:14:59.423Z,31.84
2022-08-05T17:20:09.752Z,31.15
2022-08-05T17:25:39.264Z,30.78
2022-08-05T17:30:50.706Z,30.50
2022-08-05T17:36:10.067Z,30.18
2022-08-05T17:42:18.393Z,29.85
2022-08-05T17:46:47.891Z,29.59
2022-08-05T17:51:53.979Z,29.40
2022-08-05T17:56:59.699Z,29.24
2022-08-05T18:02:04.152Z,29.05
2022-08-05T18:07:15.124Z,28.83
2022-08-05T18:12:22.238Z,28.61
2022-08-05T18:17:59.723Z,28.40
2022-08-05T18:22:54.494Z,28.20
2022-08-05T18:28:07.608Z,28.04
2022-08-05T18:33:14.463Z,27.86
2022-08-05T18:38:26.074Z,27.71
2022-08-05T18:43:38.365Z,27.53
2022-08-05T18:48:47.739Z,27.36
2022-08-05T18:53:58.837Z,27.16
2022-08-05T18:59:43.058Z,26.96
2022-08-05T19:04:32.643Z,26.74
2022-08-05T19:09:40.144Z,26.53
2022-08-05T19:15:00.821Z,26.22
2022-08-05T19:20:09.975Z,25.87
2022-08-05T19:25:29.662Z,25.63
2022-08-05T19:30:34.927Z,25.46
2022-08-05T19:35:55.965Z,25.34
2022-08-05T19:41:01.452Z,25.22
2022-08-05T19:46:06.000Z,25.12
2022-08-05T19:52:05.668Z,25.00
2022-08-05T19:56:50.619Z,24.90
2022-08-05T20:01:55.937Z,24.80
2022-08-05T20:07:00.816Z,24.64
2022-08-05T20:12:06.203Z,24.51
2022-08-05T20:17:12.540Z,24.40
2022-08-05T20:22:20.796Z,24.28
2022-08-05T20:27:41.762Z,24.15
2022-08-05T20:32:46.500Z,24.05
2022-08-05T20:38:06.147Z,23.98
2022-08-05T20:43:12.447Z,23.88
2022-08-05T20:48:17.316Z,23.77
2022-08-05T20:53:37.153Z,23.66
2022-08-05T20:58:45.444Z,23.56
2022-08-05T21:03:49.652Z,23.53
2022-08-05T21:08:55.126Z,23.52
2022-08-05T21:14:02.331Z,23.51
2022-08-05T21:19:06.483Z,23.47
2022-08-05T21:24:12.743Z,23.48
2022-08-05T21:29:17.302Z,23.54
2022-08-05T21:34:24.462Z,23.57
2022-08-05T21:39:28.681Z,23.58
2022-08-05T21:44:35.843Z,23.67
2022-08-05T21:49:58.654Z,23.68
2022-08-05T21:55:06.860Z,23.67
2022-08-05T22:00:13.267Z,23.71
2022-08-05T22:05:19.025Z,23.74
2022-08-05T22:10:34.588Z,23.72
2022-08-05T22:16:02.035Z,23.65
2022-08-05T22:21:18.887Z,23.57
2022-08-05T22:26:42.470Z,23.48
2022-08-05T22:31:55.261Z,23.46
2022-08-05T22:37:04.777Z,23.45
2022-08-05T22:42:15.445Z,23.24
2022-08-05T22:47:31.281Z,23.08
2022-08-05T22:52:36.147Z,22.94
2022-08-05T22:57:40.746Z,22.86
2022-08-05T23:02:47.000Z,22.88
2022-08-05T23:07:53.205Z,22.87
2022-08-05T23:12:57.633Z,22.80
2022-08-05T23:18:11.437Z,22.69
2022-08-05T23:23:16.065Z,22.57
2022-08-05T23:28:20.610Z,22.43
2022-08-05T23:34:06.214Z,22.37
2022-08-05T23:38:50.578Z,22.28
2022-08-05T23:44:05.297Z,22.20
2022-08-05T23:49:15.836Z,22.09
2022-08-05T23:54:25.820Z,21.98
